createdAt,value
2023-07-03T00:00:19.615Z,100957.53
2023-07-03T00:02:52.560Z,100960.53
2023-07-03T00:05:20.796Z,100963.25
2023-07-03T00:07:49.064Z,100956.19
2023-07-03T00:10:17.809Z,100956.47
2023-07-03T00:12:46.928Z,100958.38
2023-07-03T00:15:15.320Z,100954.00
2023-07-03T00:17:45.601Z,100957.84
2023-07-03T00:20:15.713Z,100957.03
2023-07-03T00:22:44.110Z,100955.38
2023-07-03T00:25:12.031Z,100949.13
2023-07-03T00:27:39.848Z,100958.38
2023-07-03T00:30:10.334Z,100951.03
2023-07-03T00:32:38.159Z,100951.31
2023-07-03T00:35:07.848Z,100955.94
2023-07-03T00:37:36.039Z,100954.31
2023-07-03T00:40:04.816Z,100942.59
2023-07-03T00:42:32.590Z,100946.41
2023-07-03T00:45:00.339Z,100944.78
2023-07-03T00:47:29.754Z,100944.78
2023-07-03T00:49:57.614Z,100945.88
2023-07-03T00:52:25.469Z,100940.66
2023-07-03T00:54:54.522Z,100952.38
2023-07-03T00:57:24.549Z,100944.78
2023-07-03T00:59:52.456Z,100942.03
2023-07-03T01:02:27.172Z,100940.41
2023-07-03T01:05:01.857Z,100937.16
2023-07-03T01:07:33.146Z,100937.44
2023-07-03T01:10:07.038Z,100939.34
2023-07-03T01:12:39.363Z,100932.25
2023-07-03T01:15:11.183Z,100934.44
2023-07-03T01:17:42.046Z,100939.06
2023-07-03T01:20:18.106Z,100928.72
2023-07-03T01:22:52.921Z,100937.72
2023-07-03T01:25:25.448Z,100931.47
2023-07-03T01:27:54.388Z,100934.47
2023-07-03T01:30:23.566Z,100944.81
2023-07-03T01:32:54.742Z,100944.00
2023-07-03T01:35:24.957Z,100934.19
2023-07-03T01:37:55.280Z,100935.28
2023-07-03T01:40:27.614Z,100930.94
2023-07-03T01:42:57.308Z,100932.84
2023-07-03T01:45:25.097Z,100933.13
2023-07-03T01:47:52.850Z,100932.59
2023-07-03T01:50:24.765Z,100942.66
2023-07-03T01:52:56.572Z,100936.69
2023-07-03T01:55:33.096Z,100935.88
2023-07-03T01:58:04.670Z,100932.31
2023-07-03T02:00:37.033Z,100926.88
2023-07-03T02:03:12.376Z,100924.41
2023-07-03T02:05:41.387Z,100928.25
2023-07-03T02:08:11.198Z,100927.44
2023-07-03T02:10:42.130Z,100925.25
2023-07-03T02:13:09.860Z,100923.06
2023-07-03T02:15:37.674Z,100924.16
2023-07-03T02:18:05.786Z,100912.72
2023-07-03T02:20:33.687Z,100916.53
2023-07-03T02:23:01.415Z,100914.91
2023-07-03T02:25:29.400Z,100923.91
2023-07-03T02:27:58.525Z,100913.28
2023-07-03T02:30:26.543Z,100916.00
2023-07-03T02:32:54.442Z,100916.00
2023-07-03T02:35:22.245Z,100908.91
2023-07-03T02:37:49.932Z,100905.66
2023-07-03T02:40:17.931Z,100912.19
2023-07-03T02:42:45.670Z,100915.75
2023-07-03T02:45:14.949Z,100916.06
2023-07-03T02:47:42.657Z,100913.59
2023-07-03T02:50:11.209Z,100911.97
2023-07-03T02:52:39.109Z,100902.16
2023-07-03T02:55:07.686Z,100905.97
2023-07-03T02:57:35.416Z,100897.28
2023-07-03T03:00:03.456Z,100902.72
2023-07-03T03:02:32.609Z,100903.00
2023-07-03T03:05:00.393Z,100897.81
2023-07-03T03:07:29.286Z,100900.53
2023-07-03T03:09:57.019Z,100902.72
2023-07-03T03:12:24.804Z,100901.91
2023-07-03T03:14:52.854Z,100895.66
2023-07-03T03:17:20.578Z,100894.84
2023-07-03T03:19:49.929Z,100900.84
2023-07-03T03:22:17.682Z,100897.28
2023-07-03T03:24:45.675Z,100897.56
2023-07-03T03:27:14.577Z,100890.50
2023-07-03T03:29:42.911Z,100897.84
2023-07-03T03:32:10.952Z,100897.84
2023-07-03T03:34:38.694Z,100902.47
2023-07-03T03:37:08.061Z,100898.13
2023-07-03T03:39:35.804Z,100894.59
2023-07-03T03:42:03.532Z,100894.59
2023-07-03T03:44:31.279Z,100892.94
2023-07-03T03:46:59.036Z,100891.31
2023-07-03T03:49:26.766Z,100895.69
2023-07-03T03:51:55.023Z,100893.50
2023-07-03T03:54:24.131Z,100891.59
2023-07-03T03:56:51.899Z,100893.50
2023-07-03T03:59:20.968Z,100887.50
2023-07-03T04:01:49.568Z,100900.84
2023-07-03T04:04:17.789Z,100906.56
2023-07-03T04:06:45.612Z,100902.22
2023-07-03T04:09:14.004Z,100906.03
2023-07-03T04:11:43.170Z,100906.31
2023-07-03T04:14:11.122Z,100910.94
2023-07-03T04:16:38.998Z,100898.69
2023-07-03T04:19:06.844Z,100903.31
2023-07-03T04:21:34.597Z,100908.22
2023-07-03T04:24:02.361Z,100911.75
2023-07-03T04:26:30.112Z,100900.88
2023-07-03T04:28:59.372Z,100902.22
2023-07-03T04:31:27.261Z,100901.16
2023-07-03T04:33:55.062Z,100900.31
2023-07-03T04:36:23.050Z,100899.50
2023-07-03T04:38:50.818Z,100905.78
2023-07-03T04:41:19.514Z,100898.69
2023-07-03T04:43:49.302Z,100898.69
2023-07-03T04:46:19.848Z,100897.88
2023-07-03T04:48:47.996Z,100912.59
2023-07-03T04:51:15.936Z,100909.84
2023-07-03T04:53:43.721Z,100908.22
2023-07-03T04:56:12.514Z,100897.59
2023-07-03T04:58:41.417Z,100913.13
2023-07-03T05:01:13.270Z,100914.22
2023-07-03T05:03:42.768Z,100912.31
2023-07-03T05:06:10.757Z,100919.38
2023-07-03T05:08:38.540Z,100924.25
2023-07-03T05:11:06.666Z,100925.09
2023-07-03T05:13:34.396Z,100925.34
2023-07-03T05:16:02.277Z,100919.09
2023-07-03T05:18:30.088Z,100923.47
2023-07-03T05:20:59.224Z,100928.66
2023-07-03T05:23:26.956Z,100926.97
2023-07-03T05:25:54.708Z,100928.88
2023-07-03T05:28:22.885Z,100925.34
2023-07-03T05:30:55.428Z,100941.94
2023-07-03T05:33:23.237Z,100940.06
2023-07-03T05:35:54.558Z,100938.72
2023-07-03T05:38:24.029Z,100946.63
2023-07-03T05:40:51.910Z,100950.41
2023-07-03T05:43:19.878Z,100943.63
2023-07-03T05:45:49.173Z,100944.44
2023-07-03T05:48:17.405Z,100945.25
2023-07-03T05:50:46.044Z,100945.25
2023-07-03T05:53:13.914Z,100949.88
2023-07-03T05:55:44.674Z,100953.13
2023-07-03T05:58:12.684Z,100952.88
2023-07-03T06:00:40.695Z,100951.50
2023-07-03T06:03:12.622Z,100953.41
2023-07-03T06:05:40.459Z,100946.03
2023-07-03T06:08:08.243Z,100949.88
2023-07-03T06:10:36.014Z,100950.41
2023-07-03T06:13:05.435Z,100956.13
2023-07-03T06:15:35.592Z,100953.94
2023-07-03T06:18:04.574Z,100954.22
2023-07-03T06:20:32.614Z,100954.22
2023-07-03T06:23:00.347Z,100958.03
2023-07-03T06:25:28.301Z,100959.13
2023-07-03T06:27:56.109Z,100958.31
2023-07-03T06:30:25.339Z,100952.88
2023-07-03T06:32:53.171Z,100954.50
2023-07-03T06:35:21.167Z,100960.22
2023-07-03T06:37:48.972Z,100957.50
2023-07-03T06:40:17.259Z,100959.66
2023-07-03T06:42:45.288Z,100964.56
2023-07-03T06:45:14.042Z,100966.75
2023-07-03T06:47:43.162Z,100959.09
2023-07-03T06:50:11.549Z,100950.91
2023-07-03T06:52:39.595Z,100950.66
2023-07-03T06:55:07.787Z,100954.75
2023-07-03T06:57:35.735Z,100958.84
2023-07-03T07:00:06.733Z,100956.66
2023-07-03T07:02:34.630Z,100949.59
2023-07-03T07:05:04.319Z,100953.41
2023-07-03T07:07:32.327Z,100965.94
2023-07-03T07:10:00.136Z,100967.03
2023-07-03T07:12:27.941Z,100967.84
2023-07-03T07:14:55.734Z,100981.72
2023-07-03T07:17:26.075Z,100981.44
2023-07-03T07:20:01.191Z,100961.56
2023-07-03T07:22:30.322Z,100973.56
2023-07-03T07:24:58.065Z,100982.00
2023-07-03T07:27:25.967Z,100967.56
2023-07-03T07:29:53.693Z,100981.72
2023-07-03T07:32:22.625Z,100980.09
2023-07-03T07:34:50.427Z,100983.63
2023-07-03T07:37:18.296Z,100979.00
2023-07-03T07:39:47.518Z,100975.47
2023-07-03T07:42:15.299Z,100979.00
2023-07-03T07:44:43.028Z,100972.72
2023-07-03T07:47:11.484Z,100971.91
2023-07-03T07:49:40.971Z,100971.91
2023-07-03T07:52:09.537Z,100970.53
2023-07-03T07:54:37.311Z,100989.88
2023-07-03T07:57:07.046Z,100984.97
2023-07-03T07:59:35.750Z,100988.25
2023-07-03T08:02:04.185Z,100995.88
2023-07-03T08:04:32.125Z,100998.88
2023-07-03T08:07:01.615Z,100995.59
2023-07-03T08:09:29.395Z,100993.97
2023-07-03T08:11:57.398Z,101006.22
2023-07-03T08:14:26.520Z,100995.88
2023-07-03T08:16:54.369Z,101004.06
2023-07-03T08:19:22.312Z,100996.44
2023-07-03T08:21:50.083Z,101003.22
2023-07-03T08:24:18.499Z,101010.84
2023-07-03T08:26:50.296Z,101010.84
2023-07-03T08:29:18.074Z,101008.94
2023-07-03T08:31:47.354Z,101005.41
2023-07-03T08:34:15.749Z,101005.13
2023-07-03T08:39:15.459Z,101002.16
2023-07-03T08:41:52.577Z,101004.88
2023-07-03T08:44:20.534Z,101012.47
2023-07-03T08:47:06.158Z,101007.03
2023-07-03T08:49:42.051Z,101010.31
2023-07-03T08:52:10.021Z,101003.47
2023-07-03T08:54:39.672Z,101020.06
2023-07-03T08:57:11.848Z,101011.09
2023-07-03T08:59:39.793Z,101009.50
2023-07-03T09:02:16.729Z,101013.81
2023-07-03T09:05:02.252Z,101005.63
2023-07-03T09:07:36.476Z,101009.72
2023-07-03T09:10:14.074Z,101018.44
2023-07-03T09:12:50.461Z,101010.25
2023-07-03T09:15:24.112Z,101005.91
2023-07-03T09:17:55.273Z,101012.16
2023-07-03T09:20:26.091Z,101009.97
2023-07-03T09:22:59.601Z,101008.59
2023-07-03T09:25:34.052Z,101009.41
2023-07-03T09:28:05.143Z,101010.50
2023-07-03T09:30:33.987Z,101005.59
2023-07-03T09:33:03.369Z,101004.50
2023-07-03T09:35:36.330Z,101008.56
2023-07-03T09:38:06.647Z,101007.22
2023-07-03T09:40:38.533Z,101000.41
2023-07-03T09:43:14.072Z,100996.88
2023-07-03T09:45:44.340Z,101009.13
2023-07-03T09:48:19.833Z,101020.84
2023-07-03T09:51:01.908Z,101026.03
2023-07-03T09:53:34.747Z,101017.03
2023-07-03T09:56:03.645Z,101016.22
2023-07-03T09:58:32.138Z,101008.84
2023-07-03T10:01:02.181Z,101007.75
2023-07-03T10:03:34.005Z,101000.91
2023-07-03T10:08:48.677Z,101021.91
2023-07-03T10:11:23.766Z,101015.38
2023-07-03T10:13:53.335Z,101023.81
2023-07-03T10:16:24.638Z,101024.38
2023-07-03T10:18:56.488Z,101021.91
2023-07-03T10:21:25.283Z,101022.44
2023-07-03T10:23:53.964Z,101025.44
2023-07-03T10:26:25.872Z,101016.69
2023-07-03T10:28:59.619Z,101016.13
2023-07-03T10:31:34.980Z,101028.91
2023-07-03T10:34:08.414Z,101024.00
2023-07-03T10:36:37.857Z,101026.75
2023-07-03T10:39:11.289Z,101029.75
2023-07-03T10:41:45.525Z,101035.44
2023-07-03T10:44:18.248Z,101033.53
2023-07-03T10:46:51.907Z,101027.25
2023-07-03T10:49:26.657Z,101034.34
2023-07-03T10:52:04.588Z,101022.34
2023-07-03T10:54:38.338Z,101025.06
2023-07-03T10:57:08.516Z,101023.97
2023-07-03T10:59:41.579Z,101031.03
2023-07-03T11:02:22.452Z,101024.75
2023-07-03T11:05:00.128Z,101018.22
2023-07-03T11:07:35.004Z,101035.69
2023-07-03T11:10:10.962Z,101025.03
2023-07-03T11:12:46.250Z,101024.53
2023-07-03T11:15:24.830Z,101034.31
2023-07-03T11:23:18.180Z,101020.91
2023-07-03T11:28:33.397Z,101033.09
2023-07-03T11:31:03.687Z,101022.44
2023-07-03T11:36:06.928Z,101031.69
2023-07-03T11:43:44.501Z,101024.56
2023-07-03T11:46:18.985Z,101028.94
2023-07-03T11:48:50.616Z,101029.47
2023-07-03T11:51:34.194Z,101023.47
2023-07-03T11:54:14.528Z,101039.28
2023-07-03T11:56:52.107Z,101037.34
2023-07-03T11:59:30.329Z,101044.19
2023-07-03T12:02:46.661Z,101039.00
2023-07-03T12:05:53.142Z,101037.13
2023-07-03T12:08:45.027Z,101042.59
2023-07-03T12:11:14.159Z,101033.00
2023-07-03T12:13:52.242Z,101037.38
2023-07-03T12:16:22.418Z,101039.56
2023-07-03T12:19:02.226Z,101046.09
2023-07-03T12:21:38.981Z,101045.00
2023-07-03T12:24:21.408Z,101040.88
2023-07-03T12:26:58.931Z,101044.16
2023-07-03T12:29:26.672Z,101050.16
2023-07-03T12:31:59.638Z,101052.59
2023-07-03T12:34:28.082Z,101055.53
2023-07-03T12:37:02.442Z,101054.47
2023-07-03T12:39:32.978Z,101048.16
2023-07-03T12:42:11.961Z,101037.78
2023-07-03T12:44:40.061Z,101040.78
2023-07-03T12:47:10.292Z,101046.00
2023-07-03T12:50:00.807Z,101044.03
2023-07-03T12:52:31.126Z,101043.50
2023-07-03T12:57:35.462Z,101050.63
2023-07-03T13:00:04.339Z,101049.00
2023-07-03T13:02:33.317Z,101053.38
2023-07-03T13:05:04.010Z,101052.56
2023-07-03T13:07:32.656Z,101056.66
2023-07-03T13:10:11.750Z,101044.41
2023-07-03T13:12:41.015Z,101049.31
2023-07-03T13:15:11.972Z,101041.63
2023-07-03T13:17:41.677Z,101039.19
2023-07-03T13:20:22.294Z,101041.09
2023-07-03T13:22:52.224Z,101047.66
2023-07-03T13:25:30.921Z,101037.28
2023-07-03T13:27:59.326Z,101040.81
2023-07-03T13:30:32.966Z,101037.03
2023-07-03T13:33:03.347Z,101039.22
2023-07-03T13:35:35.288Z,101037.59
2023-07-03T13:38:14.964Z,101023.91
2023-07-03T13:40:44.064Z,101026.63
2023-07-03T13:43:11.786Z,101035.88
2023-07-03T13:45:39.926Z,101035.06
2023-07-03T13:48:08.276Z,101033.97
2023-07-03T13:50:36.067Z,101033.16
2023-07-03T13:53:03.912Z,101030.16
2023-07-03T13:55:32.000Z,101033.69
2023-07-03T13:58:01.085Z,101031.25
2023-07-03T14:00:29.041Z,101018.13
2023-07-03T14:02:57.278Z,101024.41
2023-07-03T14:05:25.165Z,101019.22
2023-07-03T14:07:52.944Z,101017.03
2023-07-03T14:10:20.751Z,101021.66
2023-07-03T14:12:48.507Z,101019.66
2023-07-03T14:15:21.580Z,101007.47
2023-07-03T14:17:49.398Z,101013.50
2023-07-03T14:20:17.297Z,101006.94
2023-07-03T14:22:45.428Z,101000.38
2023-07-03T14:25:14.922Z,100998.72
2023-07-03T14:27:42.876Z,101001.72
2023-07-03T14:30:12.472Z,100986.97
2023-07-03T14:32:54.846Z,100984.53
2023-07-03T14:35:23.827Z,100989.13
2023-07-03T14:37:51.600Z,100993.75
2023-07-03T14:40:19.430Z,100985.84
2023-07-03T14:42:48.100Z,100992.66
2023-07-03T14:45:16.050Z,100986.91
2023-07-03T14:47:45.317Z,100992.00
2023-07-03T14:50:13.709Z,100988.75
2023-07-03T14:52:43.676Z,100988.75
2023-07-03T14:55:11.916Z,100981.38
2023-07-03T14:57:39.924Z,100990.16
2023-07-03T15:00:09.861Z,100984.13
2023-07-03T15:02:38.692Z,100974.81
2023-07-03T15:05:09.094Z,100978.88
2023-07-03T15:07:36.917Z,100982.69
2023-07-03T15:10:05.033Z,100976.94
2023-07-03T15:12:32.950Z,100981.06
2023-07-03T15:15:00.795Z,100976.75
2023-07-03T15:17:28.991Z,100981.88
2023-07-03T15:19:56.991Z,100978.06
2023-07-03T15:22:26.261Z,100976.09
2023-07-03T15:24:54.026Z,100973.06
2023-07-03T15:27:21.805Z,100967.59
2023-07-03T15:29:49.554Z,100969.22
2023-07-03T15:32:17.350Z,100970.88
2023-07-03T15:34:45.105Z,100975.47
2023-07-03T15:37:12.827Z,100969.44
2023-07-03T15:39:42.152Z,100975.47
2023-07-03T15:42:10.422Z,100965.34
2023-07-03T15:44:38.236Z,100969.13
2023-07-03T15:47:08.661Z,100967.22
2023-07-03T15:49:37.618Z,100965.00
2023-07-03T15:52:06.023Z,100970.72
2023-07-03T15:54:38.189Z,100973.97
2023-07-03T15:57:08.656Z,100976.75
2023-07-03T15:59:37.107Z,100959.66
2023-07-03T16:02:05.011Z,100980.88
2023-07-03T16:04:32.796Z,100972.09
2023-07-03T16:07:00.610Z,100970.19
2023-07-03T16:09:28.365Z,100957.41
2023-07-03T16:11:56.110Z,100964.72
2023-07-03T16:14:25.271Z,100963.63
2023-07-03T16:16:53.062Z,100966.63
2023-07-03T16:19:20.865Z,100960.94
2023-07-03T16:21:48.634Z,100951.34
2023-07-03T16:24:16.414Z,100953.84
2023-07-03T16:26:44.144Z,100940.28
2023-07-03T16:29:12.001Z,100952.69
2023-07-03T16:31:42.743Z,100952.69
2023-07-03T16:34:12.438Z,100955.91
2023-07-03T16:36:40.191Z,100960.03
2023-07-03T16:39:07.948Z,100937.69
2023-07-03T16:41:38.456Z,100949.84
2023-07-03T16:44:06.245Z,100947.94
2023-07-03T16:46:36.421Z,100937.56
2023-07-03T16:49:07.892Z,100929.66
2023-07-03T16:51:35.709Z,100938.16
2023-07-03T16:54:03.503Z,100926.94
2023-07-03T16:56:33.448Z,100924.19
2023-07-03T16:59:01.303Z,100936.19
2023-07-03T17:01:31.188Z,100939.44
2023-07-03T17:03:59.126Z,100935.31
2023-07-03T17:06:31.827Z,100932.56
2023-07-03T17:09:00.488Z,100920.28
2023-07-03T17:11:28.427Z,100925.75
2023-07-03T17:13:56.507Z,100931.44
2023-07-03T17:16:24.403Z,100929.00
2023-07-03T17:18:52.167Z,100921.09
2023-07-03T17:21:19.925Z,100915.91
2023-07-03T17:23:51.753Z,100914.00
2023-07-03T17:26:19.553Z,100905.81
2023-07-03T17:28:48.541Z,100901.16
2023-07-03T17:31:16.361Z,100902.81
2023-07-03T17:33:44.222Z,100885.13
2023-07-03T17:36:11.976Z,100902.50
2023-07-03T17:38:39.693Z,100911.53
2023-07-03T17:41:08.800Z,100905.81
2023-07-03T17:43:37.840Z,100895.94
2023-07-03T17:46:05.832Z,100904.13
2023-07-03T17:48:33.763Z,100900.88
2023-07-03T17:51:01.666Z,100896.81
2023-07-03T17:53:29.425Z,100903.59
2023-07-03T17:55:57.265Z,100910.09
2023-07-03T17:58:26.493Z,100898.34
2023-07-03T18:00:59.945Z,100898.94
2023-07-03T18:03:27.838Z,100898.66
2023-07-03T18:05:56.487Z,100887.22
2023-07-03T18:08:24.497Z,100888.84
2023-07-03T18:10:52.741Z,100888.53
2023-07-03T18:13:20.652Z,100877.88
2023-07-03T18:15:50.452Z,100882.75
2023-07-03T18:18:20.636Z,100887.13
2023-07-03T18:20:48.663Z,100883.06
2023-07-03T18:23:16.468Z,100891.78
2023-07-03T18:25:44.245Z,100889.84
2023-07-03T18:28:12.288Z,100896.94
2023-07-03T18:30:40.094Z,100887.19
2023-07-03T18:33:09.265Z,100900.03
2023-07-03T18:35:37.809Z,100896.19
2023-07-03T18:38:06.275Z,100907.66
2023-07-03T18:40:34.318Z,100900.84
2023-07-03T18:43:02.352Z,100910.44
2023-07-03T18:45:30.068Z,100919.78
2023-07-03T18:47:57.850Z,100912.16
2023-07-03T18:50:27.035Z,100908.69
2023-07-03T18:52:54.831Z,100913.31
2023-07-03T18:55:23.223Z,100920.19
2023-07-03T18:57:51.356Z,100926.22
2023-07-03T19:00:19.355Z,100914.44
2023-07-03T19:02:47.184Z,100916.13
2023-07-03T19:05:15.317Z,100917.16
2023-07-03T19:07:44.830Z,100912.00
2023-07-03T19:10:18.290Z,100916.13
2023-07-03T19:12:46.758Z,100924.38
2023-07-03T19:15:14.647Z,100926.22
2023-07-03T19:17:42.604Z,100935.25
2023-07-03T19:20:14.058Z,100926.28
2023-07-03T19:22:42.010Z,100930.41
2023-07-03T19:25:11.474Z,100925.81
2023-07-03T19:27:39.249Z,100930.75
2023-07-03T19:30:09.827Z,100940.84
2023-07-03T19:32:37.639Z,100939.22
2023-07-03T19:35:07.069Z,100938.41
2023-07-03T19:37:34.860Z,100942.50
2023-07-03T19:40:05.818Z,100955.91
2023-07-03T19:42:35.821Z,100940.00
2023-07-03T19:45:04.112Z,100952.59
2023-07-03T19:47:31.936Z,100946.84
2023-07-03T19:49:59.810Z,100951.84
2023-07-03T19:52:28.066Z,100950.97
2023-07-03T19:54:56.645Z,100961.09
2023-07-03T19:57:24.421Z,100953.75
2023-07-03T19:59:55.386Z,100962.03
2023-07-03T20:02:23.150Z,100966.38
2023-07-03T20:04:51.055Z,100969.13
2023-07-03T20:07:18.851Z,100969.69
2023-07-03T20:09:47.359Z,100973.81
2023-07-03T20:12:15.153Z,100972.19
2023-07-03T20:14:44.397Z,100977.94
2023-07-03T20:17:13.629Z,100975.47
2023-07-03T20:19:41.444Z,100985.59
2023-07-03T20:22:09.232Z,100977.69
2023-07-03T20:24:37.026Z,100980.69
2023-07-03T20:27:05.371Z,100972.25
2023-07-03T20:29:33.203Z,100970.91
2023-07-03T20:32:01.453Z,100992.75
2023-07-03T20:34:30.630Z,100978.28
2023-07-03T20:36:58.452Z,100976.94
2023-07-03T20:39:26.188Z,100972.06
2023-07-03T20:41:53.944Z,100972.88
2023-07-03T20:44:21.834Z,100975.34
2023-07-03T20:46:51.312Z,100983.56
2023-07-03T20:49:19.712Z,100983.00
2023-07-03T20:51:53.804Z,100983.31
2023-07-03T20:54:34.262Z,100990.16
2023-07-03T20:57:03.066Z,100981.66
2023-07-03T20:59:30.995Z,100978.94
2023-07-03T21:01:58.805Z,100973.78
2023-07-03T21:04:26.988Z,100986.31
2023-07-03T21:06:56.369Z,100984.69
2023-07-03T21:09:24.160Z,100985.78
2023-07-03T21:11:51.941Z,100974.34
2023-07-03T21:14:19.985Z,100989.06
2023-07-03T21:16:47.895Z,100983.88
2023-07-03T21:19:15.859Z,100973.25
2023-07-03T21:21:43.613Z,100980.91
2023-07-03T21:24:13.869Z,100977.34
2023-07-03T21:26:41.660Z,100978.44
2023-07-03T21:29:09.464Z,100970.25
2023-07-03T21:31:38.211Z,100973.53
2023-07-03T21:34:06.692Z,100973.81
2023-07-03T21:36:34.706Z,100965.09
2023-07-03T21:39:05.608Z,100970.78
2023-07-03T21:41:37.445Z,100977.63
2023-07-03T21:44:13.011Z,100981.75
2023-07-03T21:46:41.712Z,100977.38
2023-07-03T21:49:12.705Z,100983.94
2023-07-03T21:51:40.501Z,100984.22
2023-07-03T21:54:08.294Z,100979.59
2023-07-03T21:56:39.472Z,100986.13
2023-07-03T21:59:07.581Z,100983.41
2023-07-03T22:01:37.721Z,100988.06
2023-07-03T22:04:07.102Z,100987.53
2023-07-03T22:06:34.947Z,100997.91
2023-07-03T22:09:02.993Z,101001.19
2023-07-03T22:11:31.656Z,100995.75
2023-07-03T22:14:00.978Z,100993.28
2023-07-03T22:16:28.867Z,101000.94
2023-07-03T22:18:56.642Z,101004.78
2023-07-03T22:21:25.271Z,100988.69
2023-07-03T22:23:53.570Z,100996.34
2023-07-03T22:26:21.871Z,100993.88
2023-07-03T22:28:49.757Z,100994.16
2023-07-03T22:31:19.047Z,100989.81
2023-07-03T22:33:46.863Z,100996.06
2023-07-03T22:36:14.995Z,100988.16
2023-07-03T22:38:42.873Z,100993.34
2023-07-03T22:41:11.591Z,100984.34
2023-07-03T22:43:40.720Z,100984.63
2023-07-03T22:46:10.555Z,100992.28
2023-07-03T22:48:42.296Z,100982.19
2023-07-03T22:51:11.255Z,100989.56
2023-07-03T22:53:39.275Z,100987.91
2023-07-03T22:56:07.999Z,100987.91
2023-07-03T22:58:36.054Z,100988.19
2023-07-03T23:01:08.177Z,101006.47
2023-07-03T23:03:35.964Z,100997.19
2023-07-03T23:06:07.265Z,101008.41
2023-07-03T23:08:35.777Z,101010.31
2023-07-03T23:11:03.668Z,101006.22
2023-07-03T23:13:32.722Z,101011.94
2023-07-03T23:16:05.341Z,101016.31
2023-07-03T23:18:33.802Z,101018.25
2023-07-03T23:21:03.962Z,101015.50
2023-07-03T23:23:35.125Z,101022.34
2023-07-03T23:26:05.010Z,101014.44
2023-07-03T23:28:36.078Z,101034.63
2023-07-03T23:31:06.489Z,101024.00
2023-07-03T23:33:35.931Z,101019.13
2023-07-03T23:36:07.051Z,101030.25
2023-07-03T23:38:37.287Z,101034.91
2023-07-03T23:41:05.815Z,101038.44
2023-07-03T23:43:33.969Z,101039.00
2023-07-03T23:46:04.290Z,101039.28
2023-07-03T23:48:32.914Z,101043.91
2023-07-03T23:51:03.623Z,101039.56
2023-07-03T23:53:33.507Z,101040.66
2023-07-03T23:56:05.632Z,101046.09
2023-07-03T23:58:35.119Z,101045.03
